Time;durP1;ratioP1;P1;durP2;ratioP2;P2;SDS_P1;SDS_P2;PMS_P1;PMS_P2;Temp;Humidity;BMP_temperature;BMP_pressure;BME280_temperature;BME280_humidity;BME280_pressure;Samples;Min_cycle;Max_cycle;Signal;HPM_P1;HPM_P2
2022/08/30 00:04:17;;;;;;;;;;;;;;;24.01;74.26;100186.34;31418005;28;19925;-74
2022/08/30 00:19:19;;;;;;;;;;;;;;;24.03;74.58;100197.69;31408065;28;19931;-72
2022/08/30 00:34:21;;;;;;;;;;;;;;;23.93;77.07;100199.97;31429534;28;19920;-73
2022/08/30 00:49:23;;;;;;;;;;;;;;;23.82;73.59;100202.78;31420974;28;19973;-73
2022/08/30 01:04:28;;;;;;;;;;;;;;;23.80;67.58;100194.97;31402040;28;20281;-73
2022/08/30 01:19:59;;;;;;;;;;;;;;;23.72;61.47;100201.53;31426625;28;19920;-72
2022/08/30 01:35:01;;;;;;;;;;;;;;;23.76;58.21;100199.28;31416511;28;19920;-73
2022/08/30 01:50:04;;;;;;;;;;;;;;;23.83;56.89;100207.06;31412194;28;19921;-73
2022/08/30 02:05:06;;;;;;;;;;;;;;;23.62;56.50;100203.09;31430534;28;19925;-73
2022/08/30 02:20:08;;;;;;;;;;;;;;;22.96;56.84;100199.75;31442507;28;19920;-72
2022/08/30 02:35:10;;;;;;;;;;;;;;;22.79;57.58;100201.75;31425097;28;20328;-73
2022/08/30 02:50:12;;;;;;;;;;;;;;;22.44;59.76;100213.19;31444564;28;19927;-72
2022/08/30 03:05:14;;;;;;;;;;;;;;;21.84;61.35;100226.19;31442612;28;19920;-73
2022/08/30 03:20:16;;;;;;;;;;;;;;;21.98;63.32;100247.38;31434453;28;19928;-73
2022/08/30 03:35:18;;;;;;;;;;;;;;;22.28;63.96;100252.59;31418740;28;19924;-72
2022/08/30 03:50:20;;;;;;;;;;;;;;;22.50;64.52;100252.69;31435946;28;20502;-73
2022/08/30 04:05:22;;;;;;;;;;;;;;;22.78;63.63;100250.06;31442774;28;20365;-72
2022/08/30 04:20:23;;;;;;;;;;;;;;;23.24;65.00;100257.94;31418782;28;19936;-74
2022/08/30 04:35:25;;;;;;;;;;;;;;;23.69;63.82;100263.53;31428484;28;20294;-73
2022/08/30 04:50:27;;;;;;;;;;;;;;;24.18;62.28;100255.63;31397191;28;20504;-75
2022/08/30 05:05:38;;;;;;;;;;;;;;;24.58;61.31;100266.09;31397793;28;19935;-74
2022/08/30 05:20:41;;;;;;;;;;;;;;;25.36;59.80;100279.53;31428943;28;19924;-74
2022/08/30 05:35:43;;;;;;;;;;;;;;;26.08;58.12;100286.53;31423819;28;19943;-75
2022/08/30 05:50:44;;;;;;;;;;;;;;;27.23;55.83;100298.03;31418699;28;19924;-72
2022/08/30 06:05:46;;;;;;;;;;;;;;;28.31;52.34;100295.75;31437753;28;20302;-73
2022/08/30 06:20:50;;;;;;;;;;;;;;;29.12;49.04;100301.41;31459044;28;19928;-73
2022/08/30 06:35:51;;;;;;;;;;;;;;;30.05;46.45;100310.88;31422260;28;19935;-73
2022/08/30 06:50:59;;;;;;;;;;;;;;;30.99;38.06;100303.13;31406948;28;20015;-74
2022/08/30 07:06:01;;;;;;;;;;;;;;;31.88;37.41;100307.97;31447758;28;19947;-73
2022/08/30 07:21:07;;;;;;;;;;;;;;;32.54;37.90;100307.66;31451105;28;19920;-73
2022/08/30 07:36:09;;;;;;;;;;;;;;;33.16;37.48;100309.63;31426277;28;20340;-77
2022/08/30 07:51:13;;;;;;;;;;;;;;;34.00;34.31;100297.75;31443507;28;19927;-82
2022/08/30 08:06:15;;;;;;;;;;;;;;;34.70;33.70;100293.63;31409409;28;19932;-76
2022/08/30 08:21:17;;;;;;;;;;;;;;;35.68;30.38;100284.28;31440396;28;19921;-74
2022/08/30 08:36:19;;;;;;;;;;;;;;;36.33;27.39;100283.53;31459250;28;20003;-82
2022/08/30 09:06:49;;;;;;;;;;;;;;;37.21;26.68;100260.13;31459201;28;20270;-81
2022/08/30 09:21:58;;;;;;;;;;;;;;;37.33;25.81;100251.72;31470014;28;19930;-79
2022/08/30 09:37:00;;;;;;;;;;;;;;;38.08;25.03;100246.19;31460323;28;20019;-78
2022/08/30 09:52:12;;;;;;;;;;;;;;;38.74;24.25;100239.78;31441475;28;20007;-75
2022/08/30 10:07:35;;;;;;;;;;;;;;;38.87;24.73;100228.56;31455586;28;20376;-75
2022/08/30 10:22:39;;;;;;;;;;;;;;;38.79;25.85;100225.22;31435920;28;20341;-75
2022/08/30 10:37:45;;;;;;;;;;;;;;;38.27;22.71;100219.06;31449299;28;19925;-74
2022/08/30 10:52:56;;;;;;;;;;;;;;;38.87;22.16;100205.88;31467922;28;19921;-75
2022/08/30 11:08:08;;;;;;;;;;;;;;;39.21;21.37;100195.16;31439531;28;19925;-75
2022/08/30 11:23:26;;;;;;;;;;;;;;;40.13;21.17;100182.06;31425262;28;19929;-75
2022/08/30 11:38:33;;;;;;;;;;;;;;;40.28;20.05;100169.38;31416896;28;19955;-74
2022/08/30 11:53:38;;;;;;;;;;;;;;;37.27;23.32;100155.09;31427919;28;19921;-77
2022/08/30 12:08:40;;;;;;;;;;;;;;;35.91;24.21;100154.72;31426858;28;20020;-78
2022/08/30 12:23:48;;;;;;;;;;;;;;;35.44;25.60;100136.41;31448645;28;19951;-78
2022/08/30 12:39:02;;;;;;;;;;;;;;;34.94;25.46;100131.25;31439825;28;19970;-84
2022/08/30 12:54:11;;;;;;;;;;;;;;;34.58;25.79;100112.22;31419788;28;19920;-77
2022/08/30 13:09:23;;;;;;;;;;;;;;;34.24;26.22;100096.19;31409157;28;19921;-79
2022/08/30 13:24:33;;;;;;;;;;;;;;;34.21;25.13;100086.84;31419000;28;19928;-78
2022/08/30 13:39:34;;;;;;;;;;;;;;;34.15;26.79;100055.38;31439861;28;19966;-77
2022/08/30 13:54:40;;;;;;;;;;;;;;;33.82;26.92;100040.03;31448609;28;19954;-79
2022/08/30 14:09:42;;;;;;;;;;;;;;;33.71;26.66;100023.66;31448558;28;20378;-80
2022/08/30 14:24:44;;;;;;;;;;;;;;;33.39;27.00;100016.16;31430086;28;19925;-79
2022/08/30 14:39:46;;;;;;;;;;;;;;;33.34;27.62;100009.47;31430586;28;19928;-75
2022/08/30 14:54:48;;;;;;;;;;;;;;;32.94;28.74;99992.06;31421035;28;19935;-73
2022/08/30 15:09:52;;;;;;;;;;;;;;;32.88;29.14;99987.44;31424111;28;19931;-77
2022/08/30 15:24:54;;;;;;;;;;;;;;;32.64;29.73;99979.75;31426114;28;20366;-77
2022/08/30 15:39:56;;;;;;;;;;;;;;;32.28;30.51;99971.84;31442322;28;21067;-81
2022/08/30 15:55:03;;;;;;;;;;;;;;;31.94;29.90;99978.03;31437586;28;19924;-78
2022/08/30 16:10:05;;;;;;;;;;;;;;;31.75;29.96;99994.59;31425165;28;19946;-75
2022/08/30 16:25:07;;;;;;;;;;;;;;;31.66;30.68;100001.56;31442362;28;19927;-75
2022/08/30 16:40:09;;;;;;;;;;;;;;;31.51;30.71;100007.97;31422585;28;19929;-77
2022/08/30 16:55:13;;;;;;;;;;;;;;;31.23;32.01;100013.84;31420391;28;19931;-76
2022/08/30 17:10:15;;;;;;;;;;;;;;;30.83;32.94;100044.53;31434852;28;19939;-77
2022/08/30 17:25:24;;;;;;;;;;;;;;;30.57;33.37;100056.84;31472222;28;19967;-77
2022/08/30 17:40:30;;;;;;;;;;;;;;;30.42;34.53;100051.22;31460833;28;19970;-77
2022/08/30 17:55:32;;;;;;;;;;;;;;;30.26;35.07;100046.88;31468017;28;19920;-78
2022/08/30 18:10:35;;;;;;;;;;;;;;;29.88;35.75;100061.50;31463635;28;19931;-76
2022/08/30 18:25:38;;;;;;;;;;;;;;;29.00;40.56;100071.03;31456844;28;19921;-78
2022/08/30 18:40:39;;;;;;;;;;;;;;;28.36;44.16;100071.56;31439336;28;19924;-77
2022/08/30 18:55:42;;;;;;;;;;;;;;;27.90;45.85;100064.69;31442440;28;19959;-77
2022/08/30 19:10:44;;;;;;;;;;;;;;;27.66;46.75;100074.06;31437520;28;19920;-76
2022/08/30 19:25:45;;;;;;;;;;;;;;;27.60;46.34;100068.63;31421098;28;19940;-76
2022/08/30 19:40:57;;;;;;;;;;;;;;;27.52;45.93;100060.09;31424926;28;19979;-77
2022/08/30 19:55:59;;;;;;;;;;;;;;;27.45;45.44;100063.53;31426067;28;19924;-76
2022/08/30 20:11:03;;;;;;;;;;;;;;;27.24;46.21;100061.94;31399140;28;20328;-74
2022/08/30 20:26:05;;;;;;;;;;;;;;;27.01;46.75;100067.16;31474291;28;19928;-75
2022/08/30 20:41:09;;;;;;;;;;;;;;;26.60;47.97;100065.53;31412093;28;19924;-76
2022/08/30 20:56:15;;;;;;;;;;;;;;;26.39;48.51;100059.03;31388088;28;19924;-75
2022/08/30 21:11:17;;;;;;;;;;;;;;;26.37;48.58;100042.13;31399060;28;19929;-74
2022/08/30 21:26:19;;;;;;;;;;;;;;;26.51;48.15;100043.66;31433976;28;19927;-75
2022/08/30 21:41:21;;;;;;;;;;;;;;;26.40;49.85;100043.84;31426848;28;19920;-74
2022/08/30 21:56:27;;;;;;;;;;;;;;;26.13;52.43;100054.81;31449645;28;19920;-75
2022/08/30 22:11:30;;;;;;;;;;;;;;;25.77;51.70;100100.78;31416269;28;20300;-75
2022/08/30 22:26:32;;;;;;;;;;;;;;;25.11;54.45;100086.31;31438180;28;19925;-76
2022/08/30 22:41:34;;;;;;;;;;;;;;;25.15;55.73;100064.56;31428883;28;19932;-76
2022/08/30 22:56:37;;;;;;;;;;;;;;;24.95;56.64;100070.56;31428743;28;19920;-75
2022/08/30 23:11:39;;;;;;;;;;;;;;;24.77;58.47;100058.84;31421041;28;19921;-75
